sensor_id;sensor_type;location;lat;lon;timestamp;P1;durP1;ratioP1;P2;durP2;ratioP2
37069;SDS011;22984;48.862;9.320;2023-03-01T00:01:05;25.45;;;17.48;;
37069;SDS011;22984;48.862;9.320;2023-03-01T00:03:31;22.60;;;15.90;;
37069;SDS011;22984;48.862;9.320;2023-03-01T00:05:58;22.27;;;16.97;;
37069;SDS011;22984;48.862;9.320;2023-03-01T00:08:24;23.58;;;16.35;;
37069;SDS011;22984;48.862;9.320;2023-03-01T00:10:59;23.98;;;16.58;;
37069;SDS011;22984;48.862;9.320;2023-03-01T00:13:25;23.65;;;16.60;;
37069;SDS011;22984;48.862;9.320;2023-03-01T00:15:51;25.80;;;17.10;;
37069;SDS011;22984;48.862;9.320;2023-03-01T00:18:17;22.45;;;16.63;;
37069;SDS011;22984;48.862;9.320;2023-03-01T00:20:49;20.93;;;15.97;;
37069;SDS011;22984;48.862;9.320;2023-03-01T00:23:15;24.48;;;16.98;;
37069;SDS011;22984;48.862;9.320;2023-03-01T00:25:42;24.27;;;17.30;;
37069;SDS011;22984;48.862;9.320;2023-03-01T00:28:08;24.60;;;16.80;;
37069;SDS011;22984;48.862;9.320;2023-03-01T00:30:34;24.63;;;16.45;;
37069;SDS011;22984;48.862;9.320;2023-03-01T00:33:00;26.42;;;16.45;;
37069;SDS011;22984;48.862;9.320;2023-03-01T00:35:26;24.08;;;17.17;;
37069;SDS011;22984;48.862;9.320;2023-03-01T00:37:52;29.13;;;17.77;;
37069;SDS011;22984;48.862;9.320;2023-03-01T00:40:33;22.60;;;16.25;;
37069;SDS011;22984;48.862;9.320;2023-03-01T00:42:59;21.98;;;16.38;;
37069;SDS011;22984;48.862;9.320;2023-03-01T00:45:25;24.65;;;17.50;;
37069;SDS011;22984;48.862;9.320;2023-03-01T00:47:52;24.92;;;17.52;;
37069;SDS011;22984;48.862;9.320;2023-03-01T00:50:18;28.48;;;18.00;;
37069;SDS011;22984;48.862;9.320;2023-03-01T00:52:44;23.77;;;16.95;;
37069;SDS011;22984;48.862;9.320;2023-03-01T00:55:11;25.30;;;16.85;;
37069;SDS011;22984;48.862;9.320;2023-03-01T00:57:37;24.00;;;17.52;;
37069;SDS011;22984;48.862;9.320;2023-03-01T01:00:04;26.98;;;17.15;;
37069;SDS011;22984;48.862;9.320;2023-03-01T01:02:32;24.25;;;16.67;;
37069;SDS011;22984;48.862;9.320;2023-03-01T01:04:58;28.05;;;17.73;;
37069;SDS011;22984;48.862;9.320;2023-03-01T01:07:24;28.80;;;18.50;;
37069;SDS011;22984;48.862;9.320;2023-03-01T01:09:50;25.33;;;17.88;;
37069;SDS011;22984;48.862;9.320;2023-03-01T01:12:16;26.10;;;16.92;;
37069;SDS011;22984;48.862;9.320;2023-03-01T01:14:42;23.05;;;16.98;;
37069;SDS011;22984;48.862;9.320;2023-03-01T01:17:08;23.58;;;17.30;;
37069;SDS011;22984;48.862;9.320;2023-03-01T01:19:34;27.45;;;17.70;;
37069;SDS011;22984;48.862;9.320;2023-03-01T01:22:00;23.63;;;16.70;;
37069;SDS011;22984;48.862;9.320;2023-03-01T01:24:27;27.08;;;18.25;;
37069;SDS011;22984;48.862;9.320;2023-03-01T01:26:53;29.90;;;18.90;;
37069;SDS011;22984;48.862;9.320;2023-03-01T01:29:19;29.10;;;18.67;;
37069;SDS011;22984;48.862;9.320;2023-03-01T01:31:45;30.75;;;18.85;;
37069;SDS011;22984;48.862;9.320;2023-03-01T01:34:13;25.23;;;17.55;;
37069;SDS011;22984;48.862;9.320;2023-03-01T01:36:39;24.60;;;18.52;;
37069;SDS011;22984;48.862;9.320;2023-03-01T01:39:05;26.63;;;18.15;;
37069;SDS011;22984;48.862;9.320;2023-03-01T01:41:32;26.88;;;18.83;;
37069;SDS011;22984;48.862;9.320;2023-03-01T01:49:36;24.13;;;17.40;;
37069;SDS011;22984;48.862;9.320;2023-03-01T01:52:36;29.73;;;18.30;;
37069;SDS011;22984;48.862;9.320;2023-03-01T01:54:56;24.67;;;17.48;;
37069;SDS011;22984;48.862;9.320;2023-03-01T01:57:24;25.02;;;18.00;;
37069;SDS011;22984;48.862;9.320;2023-03-01T01:59:53;24.27;;;18.13;;
37069;SDS011;22984;48.862;9.320;2023-03-01T02:02:19;28.50;;;18.95;;
37069;SDS011;22984;48.862;9.320;2023-03-01T02:04:46;26.98;;;19.27;;
37069;SDS011;22984;48.862;9.320;2023-03-01T02:07:18;26.30;;;18.27;;
37069;SDS011;22984;48.862;9.320;2023-03-01T02:09:46;30.90;;;18.77;;
37069;SDS011;22984;48.862;9.320;2023-03-01T02:12:13;28.00;;;19.10;;
37069;SDS011;22984;48.862;9.320;2023-03-01T02:14:39;26.70;;;18.47;;
37069;SDS011;22984;48.862;9.320;2023-03-01T02:17:05;30.13;;;19.60;;
37069;SDS011;22984;48.862;9.320;2023-03-01T02:22:27;26.33;;;19.03;;
37069;SDS011;22984;48.862;9.320;2023-03-01T02:27:25;27.50;;;19.25;;
37069;SDS011;22984;48.862;9.320;2023-03-01T02:29:53;28.10;;;18.70;;
37069;SDS011;22984;48.862;9.320;2023-03-01T02:32:19;28.60;;;19.27;;
37069;SDS011;22984;48.862;9.320;2023-03-01T02:34:53;28.05;;;19.50;;
37069;SDS011;22984;48.862;9.320;2023-03-01T02:37:19;27.25;;;19.35;;
37069;SDS011;22984;48.862;9.320;2023-03-01T02:39:50;26.40;;;18.88;;
37069;SDS011;22984;48.862;9.320;2023-03-01T02:42:20;29.63;;;19.35;;
37069;SDS011;22984;48.862;9.320;2023-03-01T02:44:48;28.77;;;19.37;;
37069;SDS011;22984;48.862;9.320;2023-03-01T02:47:14;28.88;;;20.10;;
37069;SDS011;22984;48.862;9.320;2023-03-01T02:49:40;27.80;;;18.23;;
37069;SDS011;22984;48.862;9.320;2023-03-01T02:57:20;28.27;;;20.38;;
37069;SDS011;22984;48.862;9.320;2023-03-01T02:59:47;29.60;;;20.25;;
37069;SDS011;22984;48.862;9.320;2023-03-01T03:04:47;28.30;;;19.77;;
37069;SDS011;22984;48.862;9.320;2023-03-01T03:07:13;27.92;;;18.58;;
37069;SDS011;22984;48.862;9.320;2023-03-01T03:09:39;28.95;;;19.27;;
37069;SDS011;22984;48.862;9.320;2023-03-01T03:12:05;28.60;;;19.92;;
37069;SDS011;22984;48.862;9.320;2023-03-01T03:14:31;29.73;;;20.83;;
37069;SDS011;22984;48.862;9.320;2023-03-01T03:16:59;29.58;;;20.25;;
37069;SDS011;22984;48.862;9.320;2023-03-01T03:19:25;28.07;;;20.17;;
37069;SDS011;22984;48.862;9.320;2023-03-01T03:21:51;28.35;;;20.35;;
37069;SDS011;22984;48.862;9.320;2023-03-01T03:24:17;27.93;;;20.00;;
37069;SDS011;22984;48.862;9.320;2023-03-01T03:26:43;27.10;;;19.65;;
37069;SDS011;22984;48.862;9.320;2023-03-01T03:29:09;27.33;;;19.55;;
37069;SDS011;22984;48.862;9.320;2023-03-01T03:31:36;30.83;;;19.52;;
37069;SDS011;22984;48.862;9.320;2023-03-01T03:34:02;30.80;;;19.27;;
37069;SDS011;22984;48.862;9.320;2023-03-01T03:36:28;28.52;;;19.33;;
37069;SDS011;22984;48.862;9.320;2023-03-01T03:38:54;30.67;;;19.80;;
37069;SDS011;22984;48.862;9.320;2023-03-01T03:41:20;28.02;;;19.10;;
37069;SDS011;22984;48.862;9.320;2023-03-01T03:43:46;29.15;;;20.52;;
37069;SDS011;22984;48.862;9.320;2023-03-01T03:46:12;28.07;;;19.50;;
37069;SDS011;22984;48.862;9.320;2023-03-01T03:48:39;26.83;;;19.53;;
37069;SDS011;22984;48.862;9.320;2023-03-01T03:51:06;28.00;;;19.77;;
37069;SDS011;22984;48.862;9.320;2023-03-01T03:53:32;26.23;;;18.63;;
37069;SDS011;22984;48.862;9.320;2023-03-01T03:55:58;26.50;;;18.55;;
37069;SDS011;22984;48.862;9.320;2023-03-01T03:58:25;28.90;;;19.63;;
37069;SDS011;22984;48.862;9.320;2023-03-01T04:00:52;26.77;;;18.63;;
37069;SDS011;22984;48.862;9.320;2023-03-01T04:03:19;29.13;;;19.60;;
37069;SDS011;22984;48.862;9.320;2023-03-01T04:05:45;27.02;;;19.17;;
37069;SDS011;22984;48.862;9.320;2023-03-01T04:08:12;29.67;;;19.95;;
37069;SDS011;22984;48.862;9.320;2023-03-01T04:10:39;27.25;;;19.65;;
37069;SDS011;22984;48.862;9.320;2023-03-01T04:13:06;28.85;;;19.00;;
37069;SDS011;22984;48.862;9.320;2023-03-01T04:15:32;25.38;;;18.83;;
37069;SDS011;22984;48.862;9.320;2023-03-01T04:17:59;28.42;;;19.10;;
37069;SDS011;22984;48.862;9.320;2023-03-01T04:20:29;29.60;;;19.73;;
37069;SDS011;22984;48.862;9.320;2023-03-01T04:23:03;29.30;;;19.63;;
37069;SDS011;22984;48.862;9.320;2023-03-01T04:25:55;28.52;;;19.13;;
37069;SDS011;22984;48.862;9.320;2023-03-01T04:28:25;26.73;;;19.20;;
37069;SDS011;22984;48.862;9.320;2023-03-01T04:30:52;25.48;;;18.10;;
37069;SDS011;22984;48.862;9.320;2023-03-01T04:33:18;31.35;;;19.83;;
37069;SDS011;22984;48.862;9.320;2023-03-01T04:35:44;25.88;;;19.08;;
37069;SDS011;22984;48.862;9.320;2023-03-01T04:38:11;28.33;;;19.15;;
37069;SDS011;22984;48.862;9.320;2023-03-01T04:40:37;26.00;;;18.77;;
37069;SDS011;22984;48.862;9.320;2023-03-01T04:43:03;31.55;;;20.40;;
37069;SDS011;22984;48.862;9.320;2023-03-01T04:45:30;29.25;;;19.40;;
37069;SDS011;22984;48.862;9.320;2023-03-01T04:47:57;26.08;;;18.58;;
37069;SDS011;22984;48.862;9.320;2023-03-01T04:50:23;28.08;;;19.58;;
37069;SDS011;22984;48.862;9.320;2023-03-01T04:52:50;24.97;;;19.40;;
37069;SDS011;22984;48.862;9.320;2023-03-01T04:55:16;28.27;;;20.23;;
37069;SDS011;22984;48.862;9.320;2023-03-01T04:57:42;27.08;;;18.48;;
37069;SDS011;22984;48.862;9.320;2023-03-01T05:00:10;33.00;;;20.48;;
37069;SDS011;22984;48.862;9.320;2023-03-01T05:05:39;28.52;;;20.10;;
37069;SDS011;22984;48.862;9.320;2023-03-01T05:08:05;29.30;;;20.83;;
37069;SDS011;22984;48.862;9.320;2023-03-01T05:10:33;31.02;;;21.13;;
37069;SDS011;22984;48.862;9.320;2023-03-01T05:13:00;27.92;;;20.05;;
37069;SDS011;22984;48.862;9.320;2023-03-01T05:15:27;31.95;;;20.58;;
37069;SDS011;22984;48.862;9.320;2023-03-01T05:17:54;29.20;;;20.27;;
37069;SDS011;22984;48.862;9.320;2023-03-01T05:20:23;28.02;;;19.60;;
37069;SDS011;22984;48.862;9.320;2023-03-01T05:22:49;32.58;;;20.73;;
37069;SDS011;22984;48.862;9.320;2023-03-01T05:25:15;33.20;;;20.60;;
37069;SDS011;22984;48.862;9.320;2023-03-01T05:27:41;28.27;;;20.13;;
37069;SDS011;22984;48.862;9.320;2023-03-01T05:30:08;30.17;;;20.23;;
37069;SDS011;22984;48.862;9.320;2023-03-01T05:32:45;28.73;;;20.35;;
37069;SDS011;22984;48.862;9.320;2023-03-01T05:35:12;28.27;;;19.35;;
37069;SDS011;22984;48.862;9.320;2023-03-01T05:37:47;30.30;;;19.13;;
37069;SDS011;22984;48.862;9.320;2023-03-01T05:40:18;29.67;;;19.40;;
37069;SDS011;22984;48.862;9.320;2023-03-01T05:42:45;29.17;;;19.00;;
37069;SDS011;22984;48.862;9.320;2023-03-01T05:45:12;39.47;;;24.58;;
37069;SDS011;22984;48.862;9.320;2023-03-01T05:47:42;32.42;;;21.17;;
37069;SDS011;22984;48.862;9.320;2023-03-01T05:50:10;30.98;;;20.48;;
37069;SDS011;22984;48.862;9.320;2023-03-01T05:52:36;32.03;;;21.83;;
37069;SDS011;22984;48.862;9.320;2023-03-01T05:55:02;30.55;;;21.20;;
37069;SDS011;22984;48.862;9.320;2023-03-01T05:57:28;32.58;;;21.05;;
37069;SDS011;22984;48.862;9.320;2023-03-01T05:59:54;35.47;;;22.13;;
37069;SDS011;22984;48.862;9.320;2023-03-01T06:02:20;30.05;;;20.38;;
37069;SDS011;22984;48.862;9.320;2023-03-01T06:04:46;35.95;;;20.60;;
37069;SDS011;22984;48.862;9.320;2023-03-01T06:07:12;27.23;;;20.13;;
37069;SDS011;22984;48.862;9.320;2023-03-01T06:09:38;29.17;;;21.13;;
37069;SDS011;22984;48.862;9.320;2023-03-01T06:12:04;27.83;;;19.67;;
37069;SDS011;22984;48.862;9.320;2023-03-01T06:14:30;30.60;;;20.38;;
37069;SDS011;22984;48.862;9.320;2023-03-01T06:16:57;29.58;;;20.45;;
37069;SDS011;22984;48.862;9.320;2023-03-01T06:19:23;29.40;;;19.98;;
37069;SDS011;22984;48.862;9.320;2023-03-01T06:21:49;29.77;;;21.10;;
37069;SDS011;22984;48.862;9.320;2023-03-01T06:24:15;34.50;;;22.00;;
37069;SDS011;22984;48.862;9.320;2023-03-01T06:26:41;31.37;;;21.57;;
37069;SDS011;22984;48.862;9.320;2023-03-01T06:29:07;30.92;;;20.40;;
37069;SDS011;22984;48.862;9.320;2023-03-01T06:31:33;31.85;;;21.88;;
37069;SDS011;22984;48.862;9.320;2023-03-01T06:34:00;33.72;;;21.45;;
37069;SDS011;22984;48.862;9.320;2023-03-01T06:36:26;33.60;;;22.27;;
37069;SDS011;22984;48.862;9.320;2023-03-01T06:38:52;38.08;;;23.25;;
37069;SDS011;22984;48.862;9.320;2023-03-01T06:41:18;34.95;;;22.83;;
37069;SDS011;22984;48.862;9.320;2023-03-01T06:43:44;38.00;;;23.70;;
37069;SDS011;22984;48.862;9.320;2023-03-01T06:46:10;39.33;;;23.60;;
37069;SDS011;22984;48.862;9.320;2023-03-01T06:48:36;33.13;;;21.05;;
37069;SDS011;22984;48.862;9.320;2023-03-01T06:51:02;32.13;;;21.63;;
37069;SDS011;22984;48.862;9.320;2023-03-01T06:53:29;32.85;;;21.15;;
37069;SDS011;22984;48.862;9.320;2023-03-01T06:55:55;32.47;;;21.07;;
37069;SDS011;22984;48.862;9.320;2023-03-01T06:58:22;31.77;;;21.50;;
37069;SDS011;22984;48.862;9.320;2023-03-01T07:00:48;32.33;;;22.13;;
37069;SDS011;22984;48.862;9.320;2023-03-01T07:03:14;33.67;;;21.85;;
37069;SDS011;22984;48.862;9.320;2023-03-01T07:05:40;32.70;;;21.98;;
37069;SDS011;22984;48.862;9.320;2023-03-01T07:08:06;30.08;;;20.77;;
37069;SDS011;22984;48.862;9.320;2023-03-01T07:10:32;33.00;;;21.08;;
37069;SDS011;22984;48.862;9.320;2023-03-01T07:12:58;33.70;;;22.77;;
37069;SDS011;22984;48.862;9.320;2023-03-01T07:15:25;36.95;;;22.27;;
37069;SDS011;22984;48.862;9.320;2023-03-01T07:17:51;31.95;;;21.50;;
37069;SDS011;22984;48.862;9.320;2023-03-01T07:20:18;34.10;;;22.33;;
37069;SDS011;22984;48.862;9.320;2023-03-01T07:22:46;49.08;;;23.35;;
37069;SDS011;22984;48.862;9.320;2023-03-01T07:25:12;36.22;;;21.98;;
37069;SDS011;22984;48.862;9.320;2023-03-01T07:27:38;39.63;;;22.73;;
37069;SDS011;22984;48.862;9.320;2023-03-01T07:30:04;32.45;;;21.73;;
37069;SDS011;22984;48.862;9.320;2023-03-01T07:32:30;32.08;;;22.08;;
37069;SDS011;22984;48.862;9.320;2023-03-01T07:34:56;33.87;;;21.50;;
37069;SDS011;22984;48.862;9.320;2023-03-01T07:37:22;35.47;;;22.48;;
37069;SDS011;22984;48.862;9.320;2023-03-01T07:39:48;33.73;;;22.13;;
37069;SDS011;22984;48.862;9.320;2023-03-01T07:42:14;31.73;;;20.88;;
37069;SDS011;22984;48.862;9.320;2023-03-01T07:44:40;35.17;;;22.77;;
37069;SDS011;22984;48.862;9.320;2023-03-01T07:47:06;38.22;;;23.27;;
37069;SDS011;22984;48.862;9.320;2023-03-01T07:49:32;34.10;;;21.80;;
37069;SDS011;22984;48.862;9.320;2023-03-01T07:51:58;35.13;;;22.00;;
37069;SDS011;22984;48.862;9.320;2023-03-01T07:54:24;34.60;;;21.92;;
37069;SDS011;22984;48.862;9.320;2023-03-01T07:56:51;33.35;;;21.25;;
37069;SDS011;22984;48.862;9.320;2023-03-01T07:59:17;30.60;;;21.30;;
37069;SDS011;22984;48.862;9.320;2023-03-01T08:01:43;30.33;;;21.48;;
37069;SDS011;22984;48.862;9.320;2023-03-01T08:04:09;35.83;;;21.70;;
37069;SDS011;22984;48.862;9.320;2023-03-01T08:06:35;31.58;;;21.08;;
37069;SDS011;22984;48.862;9.320;2023-03-01T08:09:02;33.42;;;22.60;;
37069;SDS011;22984;48.862;9.320;2023-03-01T08:11:28;34.47;;;21.98;;
37069;SDS011;22984;48.862;9.320;2023-03-01T08:13:54;32.85;;;21.02;;
37069;SDS011;22984;48.862;9.320;2023-03-01T08:16:21;32.15;;;20.88;;
37069;SDS011;22984;48.862;9.320;2023-03-01T08:18:47;36.43;;;21.93;;
37069;SDS011;22984;48.862;9.320;2023-03-01T08:21:17;36.70;;;21.05;;
37069;SDS011;22984;48.862;9.320;2023-03-01T08:23:43;32.22;;;20.30;;
37069;SDS011;22984;48.862;9.320;2023-03-01T08:28:36;29.73;;;20.10;;
37069;SDS011;22984;48.862;9.320;2023-03-01T08:31:02;32.45;;;20.50;;
37069;SDS011;22984;48.862;9.320;2023-03-01T08:33:29;30.10;;;19.65;;
37069;SDS011;22984;48.862;9.320;2023-03-01T08:36:02;33.25;;;20.35;;
37069;SDS011;22984;48.862;9.320;2023-03-01T08:38:28;29.52;;;19.13;;
37069;SDS011;22984;48.862;9.320;2023-03-01T08:40:54;28.90;;;20.08;;
37069;SDS011;22984;48.862;9.320;2023-03-01T08:43:20;27.88;;;19.58;;
37069;SDS011;22984;48.862;9.320;2023-03-01T08:45:49;27.55;;;20.00;;
37069;SDS011;22984;48.862;9.320;2023-03-01T08:48:15;29.27;;;19.13;;
37069;SDS011;22984;48.862;9.320;2023-03-01T08:50:41;29.88;;;19.25;;
37069;SDS011;22984;48.862;9.320;2023-03-01T08:53:07;25.48;;;18.42;;
37069;SDS011;22984;48.862;9.320;2023-03-01T08:55:33;33.88;;;19.83;;
37069;SDS011;22984;48.862;9.320;2023-03-01T08:57:59;29.17;;;19.10;;
37069;SDS011;22984;48.862;9.320;2023-03-01T09:00:25;29.00;;;19.38;;
37069;SDS011;22984;48.862;9.320;2023-03-01T09:02:51;28.58;;;19.38;;
37069;SDS011;22984;48.862;9.320;2023-03-01T09:05:17;28.38;;;18.90;;
37069;SDS011;22984;48.862;9.320;2023-03-01T09:07:43;28.98;;;18.50;;
37069;SDS011;22984;48.862;9.320;2023-03-01T09:10:09;28.00;;;18.95;;
37069;SDS011;22984;48.862;9.320;2023-03-01T09:12:36;27.70;;;18.58;;
37069;SDS011;22984;48.862;9.320;2023-03-01T09:15:02;26.70;;;18.63;;
37069;SDS011;22984;48.862;9.320;2023-03-01T09:17:28;29.43;;;20.07;;
37069;SDS011;22984;48.862;9.320;2023-03-01T09:19:54;26.75;;;18.83;;
37069;SDS011;22984;48.862;9.320;2023-03-01T09:22:20;28.90;;;19.80;;
37069;SDS011;22984;48.862;9.320;2023-03-01T09:24:46;26.60;;;17.95;;
37069;SDS011;22984;48.862;9.320;2023-03-01T09:27:12;23.70;;;18.00;;
37069;SDS011;22984;48.862;9.320;2023-03-01T09:29:39;27.58;;;18.05;;
37069;SDS011;22984;48.862;9.320;2023-03-01T09:32:05;27.98;;;19.73;;
37069;SDS011;22984;48.862;9.320;2023-03-01T09:34:33;25.00;;;18.27;;
37069;SDS011;22984;48.862;9.320;2023-03-01T09:37:19;26.17;;;18.97;;
37069;SDS011;22984;48.862;9.320;2023-03-01T09:39:45;26.25;;;19.23;;
37069;SDS011;22984;48.862;9.320;2023-03-01T09:42:11;25.52;;;18.38;;
37069;SDS011;22984;48.862;9.320;2023-03-01T09:47:16;25.97;;;18.00;;
37069;SDS011;22984;48.862;9.320;2023-03-01T09:49:43;21.52;;;16.48;;
37069;SDS011;22984;48.862;9.320;2023-03-01T09:54:58;22.58;;;17.92;;
37069;SDS011;22984;48.862;9.320;2023-03-01T10:10:39;19.58;;;17.20;;
37069;SDS011;22984;48.862;9.320;2023-03-01T10:13:17;20.80;;;18.10;;
37069;SDS011;22984;48.862;9.320;2023-03-01T10:15:55;20.58;;;17.40;;
37069;SDS011;22984;48.862;9.320;2023-03-01T10:18:26;17.58;;;15.65;;
37069;SDS011;22984;48.862;9.320;2023-03-01T10:23:19;17.73;;;15.82;;
37069;SDS011;22984;48.862;9.320;2023-03-01T10:30:40;18.40;;;16.30;;
37069;SDS011;22984;48.862;9.320;2023-03-01T10:33:25;20.83;;;16.43;;
37069;SDS011;22984;48.862;9.320;2023-03-01T10:35:52;22.50;;;16.58;;
37069;SDS011;22984;48.862;9.320;2023-03-01T10:38:18;18.08;;;16.33;;
37069;SDS011;22984;48.862;9.320;2023-03-01T10:40:57;16.75;;;14.90;;
37069;SDS011;22984;48.862;9.320;2023-03-01T10:43:28;16.63;;;15.02;;
37069;SDS011;22984;48.862;9.320;2023-03-01T10:45:56;17.50;;;14.75;;
37069;SDS011;22984;48.862;9.320;2023-03-01T10:48:23;17.73;;;15.65;;
37069;SDS011;22984;48.862;9.320;2023-03-01T10:51:12;16.77;;;15.07;;
37069;SDS011;22984;48.862;9.320;2023-03-01T10:58:29;16.75;;;15.13;;
37069;SDS011;22984;48.862;9.320;2023-03-01T11:01:00;16.02;;;14.50;;
37069;SDS011;22984;48.862;9.320;2023-03-01T11:03:34;17.15;;;14.70;;
37069;SDS011;22984;48.862;9.320;2023-03-01T11:08:48;17.10;;;14.82;;
37069;SDS011;22984;48.862;9.320;2023-03-01T11:11:14;16.88;;;15.20;;
37069;SDS011;22984;48.862;9.320;2023-03-01T11:13:56;15.73;;;14.32;;
37069;SDS011;22984;48.862;9.320;2023-03-01T11:16:29;16.40;;;14.80;;
37069;SDS011;22984;48.862;9.320;2023-03-01T11:21:32;15.88;;;14.27;;
37069;SDS011;22984;48.862;9.320;2023-03-01T11:24:00;15.25;;;13.85;;
37069;SDS011;22984;48.862;9.320;2023-03-01T11:26:27;15.73;;;14.23;;
37069;SDS011;22984;48.862;9.320;2023-03-01T11:28:56;14.98;;;13.48;;
37069;SDS011;22984;48.862;9.320;2023-03-01T11:31:23;15.82;;;13.55;;
37069;SDS011;22984;48.862;9.320;2023-03-01T11:33:53;15.32;;;13.82;;
37069;SDS011;22984;48.862;9.320;2023-03-01T11:38:52;15.65;;;14.15;;
37069;SDS011;22984;48.862;9.320;2023-03-01T11:41:31;14.77;;;13.27;;
37069;SDS011;22984;48.862;9.320;2023-03-01T11:44:00;14.88;;;13.30;;
37069;SDS011;22984;48.862;9.320;2023-03-01T11:56:53;14.75;;;13.25;;
37069;SDS011;22984;48.862;9.320;2023-03-01T12:02:07;15.57;;;14.17;;
37069;SDS011;22984;48.862;9.320;2023-03-01T12:17:47;16.30;;;14.80;;
37069;SDS011;22984;48.862;9.320;2023-03-01T12:40:43;14.80;;;13.43;;
37069;SDS011;22984;48.862;9.320;2023-03-01T12:50:56;15.50;;;13.88;;
37069;SDS011;22984;48.862;9.320;2023-03-01T12:53:30;15.15;;;13.55;;
37069;SDS011;22984;48.862;9.320;2023-03-01T12:56:05;14.63;;;13.30;;
37069;SDS011;22984;48.862;9.320;2023-03-01T13:01:05;14.43;;;13.02;;
37069;SDS011;22984;48.862;9.320;2023-03-01T13:08:36;15.50;;;14.00;;
37069;SDS011;22984;48.862;9.320;2023-03-01T13:11:05;13.95;;;12.57;;
37069;SDS011;22984;48.862;9.320;2023-03-01T13:13:33;16.77;;;15.27;;
37069;SDS011;22984;48.862;9.320;2023-03-01T13:16:19;17.13;;;14.57;;
37069;SDS011;22984;48.862;9.320;2023-03-01T13:18:44;16.60;;;14.23;;
37069;SDS011;22984;48.862;9.320;2023-03-01T13:21:11;16.02;;;14.52;;
37069;SDS011;22984;48.862;9.320;2023-03-01T13:23:37;16.42;;;14.90;;
37069;SDS011;22984;48.862;9.320;2023-03-01T13:26:15;16.92;;;15.23;;
37069;SDS011;22984;48.862;9.320;2023-03-01T13:36:09;16.90;;;15.10;;
37069;SDS011;22984;48.862;9.320;2023-03-01T13:38:41;18.42;;;15.48;;
37069;SDS011;22984;48.862;9.320;2023-03-01T13:41:10;18.73;;;15.93;;
37069;SDS011;22984;48.862;9.320;2023-03-01T13:43:38;18.67;;;16.35;;
37069;SDS011;22984;48.862;9.320;2023-03-01T13:46:23;19.90;;;16.20;;
37069;SDS011;22984;48.862;9.320;2023-03-01T13:48:53;19.70;;;17.33;;
37069;SDS011;22984;48.862;9.320;2023-03-01T13:51:22;17.45;;;15.65;;
37069;SDS011;22984;48.862;9.320;2023-03-01T13:53:49;17.48;;;15.77;;
37069;SDS011;22984;48.862;9.320;2023-03-01T13:56:17;17.57;;;15.13;;
37069;SDS011;22984;48.862;9.320;2023-03-01T14:01:31;18.50;;;16.38;;
37069;SDS011;22984;48.862;9.320;2023-03-01T14:04:14;18.35;;;16.45;;
37069;SDS011;22984;48.862;9.320;2023-03-01T14:06:44;18.17;;;16.38;;
37069;SDS011;22984;48.862;9.320;2023-03-01T14:09:14;18.70;;;15.95;;
37069;SDS011;22984;48.862;9.320;2023-03-01T14:19:36;16.83;;;15.05;;
37069;SDS011;22984;48.862;9.320;2023-03-01T14:24:28;17.02;;;15.23;;
37069;SDS011;22984;48.862;9.320;2023-03-01T14:26:55;18.95;;;16.80;;
37069;SDS011;22984;48.862;9.320;2023-03-01T14:29:29;20.65;;;16.75;;
37069;SDS011;22984;48.862;9.320;2023-03-01T14:32:08;19.70;;;16.33;;
37069;SDS011;22984;48.862;9.320;2023-03-01T14:34:34;17.42;;;15.52;;
37069;SDS011;22984;48.862;9.320;2023-03-01T14:39:42;19.38;;;17.38;;
37069;SDS011;22984;48.862;9.320;2023-03-01T14:42:08;19.38;;;16.45;;
37069;SDS011;22984;48.862;9.320;2023-03-01T14:44:34;21.00;;;15.88;;
37069;SDS011;22984;48.862;9.320;2023-03-01T14:47:02;18.60;;;16.27;;
37069;SDS011;22984;48.862;9.320;2023-03-01T14:49:29;32.45;;;16.27;;
37069;SDS011;22984;48.862;9.320;2023-03-01T14:56:48;18.77;;;16.33;;
37069;SDS011;22984;48.862;9.320;2023-03-01T14:59:18;19.70;;;16.67;;
37069;SDS011;22984;48.862;9.320;2023-03-01T15:01:45;18.15;;;16.35;;
37069;SDS011;22984;48.862;9.320;2023-03-01T15:04:12;17.67;;;15.67;;
37069;SDS011;22984;48.862;9.320;2023-03-01T15:06:38;20.03;;;16.57;;
37069;SDS011;22984;48.862;9.320;2023-03-01T15:09:05;18.17;;;15.60;;
37069;SDS011;22984;48.862;9.320;2023-03-01T15:11:32;17.95;;;15.48;;
37069;SDS011;22984;48.862;9.320;2023-03-01T15:13:58;18.08;;;15.85;;
37069;SDS011;22984;48.862;9.320;2023-03-01T15:16:29;18.87;;;16.63;;
37069;SDS011;22984;48.862;9.320;2023-03-01T15:19:03;20.48;;;15.80;;
37069;SDS011;22984;48.862;9.320;2023-03-01T15:21:33;16.98;;;15.18;;
37069;SDS011;22984;48.862;9.320;2023-03-01T15:26:55;19.92;;;15.60;;
37069;SDS011;22984;48.862;9.320;2023-03-01T15:29:26;18.90;;;15.65;;
37069;SDS011;22984;48.862;9.320;2023-03-01T15:31:59;20.38;;;16.35;;
37069;SDS011;22984;48.862;9.320;2023-03-01T15:34:43;21.40;;;15.88;;
37069;SDS011;22984;48.862;9.320;2023-03-01T15:37:35;20.08;;;15.88;;
37069;SDS011;22984;48.862;9.320;2023-03-01T15:39:56;18.02;;;15.48;;
37069;SDS011;22984;48.862;9.320;2023-03-01T15:47:52;19.13;;;15.60;;
37069;SDS011;22984;48.862;9.320;2023-03-01T15:50:20;18.30;;;15.85;;
37069;SDS011;22984;48.862;9.320;2023-03-01T15:52:47;20.27;;;14.87;;
37069;SDS011;22984;48.862;9.320;2023-03-01T15:55:17;19.07;;;14.93;;
37069;SDS011;22984;48.862;9.320;2023-03-01T15:57:44;17.02;;;15.23;;
37069;SDS011;22984;48.862;9.320;2023-03-01T16:00:11;19.20;;;15.27;;
37069;SDS011;22984;48.862;9.320;2023-03-01T16:02:38;17.63;;;15.18;;
37069;SDS011;22984;48.862;9.320;2023-03-01T16:05:04;18.15;;;14.90;;
37069;SDS011;22984;48.862;9.320;2023-03-01T16:07:30;20.90;;;16.20;;
37069;SDS011;22984;48.862;9.320;2023-03-01T16:09:57;20.27;;;15.70;;
37069;SDS011;22984;48.862;9.320;2023-03-01T16:12:23;20.80;;;16.15;;
37069;SDS011;22984;48.862;9.320;2023-03-01T16:14:49;23.30;;;16.88;;
37069;SDS011;22984;48.862;9.320;2023-03-01T16:17:15;22.13;;;16.33;;
37069;SDS011;22984;48.862;9.320;2023-03-01T16:19:41;19.38;;;15.95;;
37069;SDS011;22984;48.862;9.320;2023-03-01T16:22:11;18.35;;;15.20;;
37069;SDS011;22984;48.862;9.320;2023-03-01T16:24:37;18.30;;;15.35;;
37069;SDS011;22984;48.862;9.320;2023-03-01T16:27:03;21.20;;;15.87;;
37069;SDS011;22984;48.862;9.320;2023-03-01T16:29:29;19.13;;;15.32;;
37069;SDS011;22984;48.862;9.320;2023-03-01T16:31:55;18.67;;;15.73;;
37069;SDS011;22984;48.862;9.320;2023-03-01T16:34:21;20.38;;;15.60;;
37069;SDS011;22984;48.862;9.320;2023-03-01T16:36:48;22.52;;;16.48;;
37069;SDS011;22984;48.862;9.320;2023-03-01T16:39:14;23.40;;;15.80;;
37069;SDS011;22984;48.862;9.320;2023-03-01T16:41:41;24.88;;;16.23;;
37069;SDS011;22984;48.862;9.320;2023-03-01T16:44:07;21.00;;;14.70;;
37069;SDS011;22984;48.862;9.320;2023-03-01T16:46:33;23.17;;;16.67;;
37069;SDS011;22984;48.862;9.320;2023-03-01T16:48:59;23.50;;;15.07;;
37069;SDS011;22984;48.862;9.320;2023-03-01T16:51:25;19.70;;;15.52;;
37069;SDS011;22984;48.862;9.320;2023-03-01T16:53:51;23.20;;;15.45;;
37069;SDS011;22984;48.862;9.320;2023-03-01T16:56:17;27.40;;;16.83;;
37069;SDS011;22984;48.862;9.320;2023-03-01T16:58:43;20.67;;;15.40;;
37069;SDS011;22984;48.862;9.320;2023-03-01T17:01:14;20.98;;;15.57;;
37069;SDS011;22984;48.862;9.320;2023-03-01T17:03:41;21.05;;;15.30;;
37069;SDS011;22984;48.862;9.320;2023-03-01T17:06:08;20.23;;;15.82;;